createdAt,value
2019-04-10T00:02:31.325Z,29.25
2019-04-10T00:05:07.692Z,28.23
2019-04-10T00:07:43.874Z,29.15
2019-04-10T00:10:19.692Z,29.57
2019-04-10T00:12:56.140Z,30.70
2019-04-10T00:15:32.687Z,31.05
2019-04-10T00:18:10.118Z,30.90
2019-04-10T00:20:47.510Z,29.70
2019-04-10T00:23:23.366Z,31.20
2019-04-10T00:25:59.422Z,31.45
2019-04-10T00:28:35.875Z,32.23
2019-04-10T00:31:11.745Z,34.20
2019-04-10T00:33:47.610Z,33.67
2019-04-10T00:36:23.472Z,36.35
2019-04-10T00:38:59.311Z,33.55
2019-04-10T00:41:35.171Z,31.68
2019-04-10T00:44:11.199Z,32.42
2019-04-10T00:46:47.088Z,34.25
2019-04-10T00:49:23.899Z,30.00
2019-04-10T00:51:59.919Z,30.30
2019-04-10T00:54:35.967Z,30.23
2019-04-10T00:57:12.647Z,30.65
2019-04-10T00:59:48.708Z,30.02
2019-04-10T01:02:24.812Z,28.73
2019-04-10T01:05:00.828Z,28.17
2019-04-10T01:07:40.169Z,29.50
2019-04-10T01:10:14.363Z,28.33
2019-04-10T01:12:50.292Z,37.90
2019-04-10T01:15:26.704Z,29.12
2019-04-10T01:18:02.657Z,28.17
2019-04-10T01:20:38.509Z,27.98
2019-04-10T01:23:14.355Z,26.93
2019-04-10T01:25:50.523Z,26.50
2019-04-10T01:28:26.828Z,25.35
2019-04-10T01:31:02.737Z,25.95
2019-04-10T01:33:38.817Z,24.92
2019-04-10T01:36:15.085Z,24.67
2019-04-10T01:38:51.760Z,23.47
2019-04-10T01:41:27.904Z,25.03
2019-04-10T01:44:03.763Z,22.15
2019-04-10T01:46:40.263Z,24.67
2019-04-10T01:49:16.180Z,21.93
2019-04-10T01:51:52.034Z,22.55
2019-04-10T01:54:28.017Z,22.58
2019-04-10T01:57:04.143Z,21.52
2019-04-10T01:59:40.825Z,21.62
2019-04-10T02:02:19.230Z,21.82
2019-04-10T02:04:55.594Z,21.37
2019-04-10T02:07:32.483Z,21.00
2019-04-10T02:10:08.338Z,20.43
2019-04-10T02:12:45.142Z,20.00
2019-04-10T02:15:21.716Z,20.32
2019-04-10T02:17:57.733Z,19.35
2019-04-10T02:20:34.641Z,19.20
2019-04-10T02:23:12.292Z,18.70
2019-04-10T02:25:49.303Z,18.42
2019-04-10T02:28:25.356Z,17.92
2019-04-10T02:31:02.841Z,18.55
2019-04-10T02:33:39.009Z,17.95
2019-04-10T02:36:14.855Z,18.00
2019-04-10T02:39:03.322Z,17.17
2019-04-10T02:41:29.709Z,17.40
2019-04-10T02:44:05.905Z,16.67
2019-04-10T02:46:41.885Z,16.97
2019-04-10T02:49:18.434Z,16.77
2019-04-10T02:51:54.993Z,15.80
2019-04-10T02:54:30.967Z,16.73
2019-04-10T02:57:07.445Z,16.25
2019-04-10T02:59:45.233Z,16.27
2019-04-10T03:02:22.040Z,15.32
2019-04-10T03:04:59.378Z,14.83
2019-04-10T03:07:35.908Z,15.23
2019-04-10T03:10:21.772Z,16.03
2019-04-10T03:12:49.843Z,14.90
2019-04-10T03:15:27.228Z,13.65
2019-04-10T03:18:04.173Z,14.20
2019-04-10T03:20:41.168Z,14.30
2019-04-10T03:23:17.645Z,14.10
2019-04-10T03:25:53.489Z,14.28
2019-04-10T03:28:29.353Z,14.33
2019-04-10T03:31:07.700Z,13.90
2019-04-10T03:34:01.009Z,13.20
2019-04-10T03:36:39.974Z,13.43
2019-04-10T03:39:16.003Z,13.95
2019-04-10T03:41:52.894Z,13.43
2019-04-10T03:44:28.734Z,12.90
2019-04-10T03:47:04.959Z,12.50
2019-04-10T03:49:40.752Z,14.15
2019-04-10T03:52:16.902Z,12.23
2019-04-10T03:54:52.977Z,12.45
2019-04-10T03:57:28.904Z,12.47
2019-04-10T04:00:09.903Z,12.63
2019-04-10T04:02:46.391Z,12.00
2019-04-10T04:05:22.468Z,12.10
2019-04-10T04:07:59.162Z,12.15
2019-04-10T04:10:35.194Z,13.18
2019-04-10T04:13:11.183Z,12.33
2019-04-10T04:15:47.178Z,12.05
2019-04-10T04:22:10.542Z,12.07
2019-04-10T04:24:48.988Z,11.73
2019-04-10T04:34:56.698Z,11.83
2019-04-10T04:37:55.894Z,11.57
2019-04-10T04:41:17.494Z,10.85
2019-04-10T04:44:20.273Z,10.88
2019-04-10T04:46:57.000Z,11.83
2019-04-10T04:49:36.063Z,11.30
2019-04-10T04:52:16.306Z,11.67
2019-04-10T04:54:55.285Z,10.13
2019-04-10T04:57:34.167Z,11.83
2019-04-10T05:00:09.814Z,10.26
2019-04-10T05:02:53.684Z,11.18
2019-04-10T05:05:37.327Z,11.25
2019-04-10T05:08:15.303Z,11.12
2019-04-10T05:11:24.508Z,10.93
2019-04-10T05:14:19.476Z,10.70
2019-04-10T05:16:55.555Z,9.48
2019-04-10T05:19:31.392Z,10.58
2019-04-10T05:22:08.023Z,10.95
2019-04-10T05:24:44.648Z,11.18
2019-04-10T05:27:20.522Z,11.35
2019-04-10T05:29:56.314Z,10.35
2019-04-10T05:32:32.961Z,11.03
2019-04-10T05:35:10.063Z,10.60
2019-04-10T05:37:45.987Z,10.55
2019-04-10T05:40:21.872Z,11.10
2019-04-10T05:42:57.664Z,10.63
2019-04-10T05:45:33.879Z,10.38
2019-04-10T05:48:10.994Z,11.00
2019-04-10T05:50:54.029Z,11.40
2019-04-10T05:53:24.647Z,11.05
2019-04-10T05:56:01.501Z,10.35
2019-04-10T05:58:37.360Z,11.38
2019-04-10T06:01:13.584Z,10.95
2019-04-10T06:03:49.405Z,10.45
2019-04-10T06:06:25.237Z,11.93
2019-04-10T06:09:02.623Z,10.75
2019-04-10T06:11:39.492Z,10.90
2019-04-10T06:14:16.196Z,11.60
2019-04-10T06:16:52.869Z,11.60
2019-04-10T06:19:28.915Z,10.88
2019-04-10T06:22:05.248Z,11.43
2019-04-10T06:24:41.104Z,10.80
2019-04-10T06:27:16.885Z,11.95
2019-04-10T06:29:53.144Z,11.60
2019-04-10T06:32:29.591Z,11.75
2019-04-10T06:35:08.155Z,11.95
2019-04-10T06:37:44.232Z,12.82
2019-04-10T06:40:23.851Z,11.37
2019-04-10T06:42:58.392Z,12.18
2019-04-10T06:45:35.752Z,11.03
2019-04-10T06:48:13.040Z,12.10
2019-04-10T06:50:48.837Z,44.42
2019-04-10T06:53:24.845Z,14.43
2019-04-10T06:56:00.771Z,11.90
2019-04-10T06:58:38.128Z,12.50
2019-04-10T07:01:14.758Z,43.40
2019-04-10T07:03:59.170Z,12.05
2019-04-10T07:06:43.756Z,12.20
2019-04-10T07:09:07.663Z,11.45
2019-04-10T07:11:45.207Z,12.78
2019-04-10T07:14:21.061Z,12.30
2019-04-10T07:17:01.642Z,12.47
2019-04-10T07:19:34.520Z,11.78
2019-04-10T07:22:13.932Z,12.00
2019-04-10T07:24:48.246Z,13.03
2019-04-10T07:27:24.123Z,11.22
2019-04-10T07:30:01.468Z,12.85
2019-04-10T07:32:41.232Z,12.33
2019-04-10T07:35:19.582Z,11.97
2019-04-10T07:37:56.651Z,11.75
2019-04-10T07:40:34.940Z,13.98
2019-04-10T07:43:08.570Z,13.90
2019-04-10T07:45:44.414Z,14.13
2019-04-10T07:48:20.549Z,29.18
2019-04-10T07:50:56.541Z,22.45
2019-04-10T07:53:33.185Z,11.53
2019-04-10T07:56:14.885Z,13.10
2019-04-10T07:58:48.189Z,13.32
2019-04-10T08:01:24.351Z,14.03
2019-04-10T08:04:00.316Z,17.60
2019-04-10T08:06:37.193Z,22.80
2019-04-10T08:09:13.245Z,12.43
2019-04-10T08:11:49.123Z,13.25
2019-04-10T08:14:24.952Z,12.43
2019-04-10T08:17:00.805Z,13.95
2019-04-10T08:19:37.004Z,13.28
2019-04-10T08:22:14.462Z,12.78
2019-04-10T08:24:51.239Z,12.93
2019-04-10T08:27:27.683Z,13.03
2019-04-10T08:30:03.977Z,12.50
2019-04-10T08:32:50.884Z,13.00
2019-04-10T08:35:17.508Z,12.75
2019-04-10T08:37:53.525Z,12.93
2019-04-10T08:40:30.023Z,13.05
2019-04-10T08:43:06.291Z,12.53
2019-04-10T08:45:47.144Z,14.18
2019-04-10T08:48:19.808Z,13.35
2019-04-10T08:50:56.732Z,14.30
2019-04-10T08:53:32.705Z,15.20
2019-04-10T08:56:08.963Z,15.08
2019-04-10T08:58:45.355Z,16.10
2019-04-10T09:01:21.181Z,13.80
2019-04-10T09:03:57.435Z,13.88
2019-04-10T09:06:33.589Z,13.48
2019-04-10T09:09:09.811Z,15.45
2019-04-10T09:11:45.818Z,13.78
2019-04-10T09:14:21.609Z,13.60
2019-04-10T09:16:58.538Z,13.98
2019-04-10T09:19:36.232Z,15.30
2019-04-10T09:22:12.102Z,13.53
2019-04-10T09:24:48.853Z,14.23
2019-04-10T09:27:24.794Z,15.32
2019-04-10T09:30:00.972Z,14.30
2019-04-10T09:32:37.219Z,13.38
2019-04-10T09:35:14.054Z,16.93
2019-04-10T09:37:50.458Z,13.05
2019-04-10T09:40:27.848Z,13.70
2019-04-10T09:43:03.677Z,15.35
2019-04-10T09:45:39.447Z,14.60
2019-04-10T09:48:15.260Z,13.55
2019-04-10T09:50:51.061Z,13.43
2019-04-10T09:53:26.887Z,14.13
2019-04-10T09:56:03.684Z,15.30
2019-04-10T09:58:40.547Z,14.65
2019-04-10T10:01:16.330Z,15.50
2019-04-10T10:03:52.793Z,13.62
2019-04-10T10:06:33.433Z,13.65
2019-04-10T10:09:08.365Z,15.23
2019-04-10T10:11:44.862Z,13.65
2019-04-10T10:14:20.985Z,15.53
2019-04-10T10:16:56.764Z,14.07
2019-04-10T10:19:32.897Z,14.23
2019-04-10T10:22:09.661Z,14.58
2019-04-10T10:24:45.440Z,13.95
2019-04-10T10:27:21.986Z,13.78
2019-04-10T10:29:59.908Z,15.63
2019-04-10T10:32:35.903Z,13.35
2019-04-10T10:35:11.739Z,14.75
2019-04-10T10:37:48.461Z,14.05
2019-04-10T10:40:25.533Z,13.65
2019-04-10T10:43:02.444Z,15.23
2019-04-10T10:45:38.731Z,15.38
2019-04-10T10:48:15.674Z,16.80
2019-04-10T10:50:53.295Z,15.13
2019-04-10T10:53:30.397Z,15.32
2019-04-10T10:56:06.391Z,28.67
2019-04-10T10:58:42.174Z,17.60
2019-04-10T11:01:18.067Z,16.40
2019-04-10T11:03:54.195Z,16.30
2019-04-10T11:06:30.962Z,14.68
2019-04-10T11:09:10.209Z,14.23
2019-04-10T11:11:49.487Z,14.58
2019-04-10T11:14:25.379Z,14.33
2019-04-10T11:17:03.393Z,13.80
2019-04-10T11:19:39.533Z,14.95
2019-04-10T11:22:21.803Z,13.95
2019-04-10T11:24:52.820Z,15.05
2019-04-10T11:27:29.399Z,13.90
2019-04-10T11:30:08.259Z,13.28
2019-04-10T11:32:44.531Z,13.30
2019-04-10T11:35:21.779Z,24.95
2019-04-10T11:38:00.519Z,41.13
2019-04-10T11:40:35.195Z,15.90
2019-04-10T11:43:12.567Z,16.12
2019-04-10T11:45:52.445Z,17.02
2019-04-10T11:48:28.484Z,15.83
2019-04-10T11:51:03.835Z,17.30
2019-04-10T11:53:44.524Z,15.75
2019-04-10T11:56:19.201Z,17.67
2019-04-10T11:58:56.879Z,15.93
2019-04-10T12:01:34.776Z,16.30
2019-04-10T12:04:10.914Z,14.98
2019-04-10T12:06:50.215Z,16.23
2019-04-10T12:12:01.971Z,15.43
2019-04-10T12:14:37.758Z,16.35
2019-04-10T12:17:13.847Z,16.40
2019-04-10T12:19:49.681Z,15.53
2019-04-10T12:22:25.525Z,14.03
2019-04-10T12:25:01.378Z,14.15
2019-04-10T12:27:37.242Z,14.30
2019-04-10T12:30:13.906Z,15.83
2019-04-10T12:32:50.693Z,15.48
2019-04-10T12:35:26.597Z,14.80
2019-04-10T12:38:07.011Z,14.63
2019-04-10T12:40:40.615Z,15.20
2019-04-10T12:43:16.748Z,14.70
2019-04-10T12:45:52.730Z,14.15
2019-04-10T12:48:28.679Z,15.90
2019-04-10T12:51:05.629Z,16.00
2019-04-10T12:53:41.617Z,14.95
2019-04-10T12:56:17.844Z,15.10
2019-04-10T12:58:53.828Z,14.47
2019-04-10T13:01:30.929Z,16.05
2019-04-10T13:04:07.561Z,15.28
2019-04-10T13:06:44.288Z,15.32
2019-04-10T13:09:20.317Z,14.85
2019-04-10T13:11:56.527Z,15.08
2019-04-10T13:14:32.836Z,14.43
2019-04-10T13:17:08.922Z,14.73
2019-04-10T13:19:45.043Z,14.73
2019-04-10T13:22:20.815Z,14.65
2019-04-10T13:24:57.677Z,15.55
2019-04-10T13:27:33.560Z,15.15
2019-04-10T13:30:13.063Z,14.63
2019-04-10T13:32:50.078Z,14.60
2019-04-10T13:35:26.180Z,14.40
2019-04-10T13:38:03.138Z,14.93
2019-04-10T13:40:39.520Z,16.42
2019-04-10T13:43:15.974Z,17.62
2019-04-10T13:45:52.321Z,15.85
2019-04-10T13:48:29.070Z,16.52
2019-04-10T13:51:05.375Z,14.75
2019-04-10T13:53:41.902Z,15.88
2019-04-10T13:56:17.778Z,14.70
2019-04-10T13:58:53.639Z,14.63
2019-04-10T14:01:35.672Z,15.58
2019-04-10T14:04:11.579Z,14.95
2019-04-10T14:06:49.135Z,15.35
2019-04-10T14:09:34.845Z,14.98
2019-04-10T14:12:03.886Z,16.27
2019-04-10T14:14:40.490Z,16.35
2019-04-10T14:17:17.353Z,16.37
2019-04-10T14:19:54.123Z,15.68
2019-04-10T14:22:30.042Z,16.12
2019-04-10T14:25:07.934Z,15.63
2019-04-10T14:27:44.550Z,15.68
2019-04-10T14:30:25.283Z,16.00
2019-04-10T14:33:01.129Z,17.15
2019-04-10T14:35:36.996Z,17.45
2019-04-10T14:38:13.041Z,16.60
2019-04-10T14:40:49.408Z,16.27
2019-04-10T14:43:25.680Z,17.50
2019-04-10T14:46:02.684Z,16.97
2019-04-10T14:48:38.625Z,15.75
2019-04-10T14:51:14.562Z,20.37
2019-04-10T14:53:51.116Z,18.57
2019-04-10T14:56:28.252Z,27.65
2019-04-10T14:59:04.188Z,24.52
2019-04-10T15:01:40.041Z,16.30
2019-04-10T15:04:17.182Z,17.67
2019-04-10T15:06:53.372Z,16.52
2019-04-10T15:09:30.594Z,21.25
2019-04-10T15:12:07.280Z,21.57
2019-04-10T15:14:44.229Z,16.17
2019-04-10T15:17:21.042Z,16.60
2019-04-10T15:19:57.251Z,16.82
2019-04-10T15:22:33.830Z,19.25
2019-04-10T15:25:10.922Z,16.42
2019-04-10T15:27:46.875Z,16.27
2019-04-10T15:30:22.718Z,46.63
2019-04-10T15:32:58.569Z,31.90
2019-04-10T15:35:34.850Z,20.82
2019-04-10T15:38:11.713Z,17.85
2019-04-10T15:40:47.669Z,16.73
2019-04-10T15:43:24.919Z,17.92
2019-04-10T15:46:02.258Z,22.62
2019-04-10T15:48:38.200Z,18.25
2019-04-10T15:51:14.191Z,16.25
2019-04-10T15:53:51.399Z,14.53
2019-04-10T15:56:27.660Z,20.80
2019-04-10T15:59:03.916Z,22.05
2019-04-10T16:01:39.825Z,21.02
2019-04-10T16:04:15.691Z,18.62
2019-04-10T16:06:51.617Z,22.05
2019-04-10T16:09:29.375Z,20.08
2019-04-10T16:12:08.122Z,21.27
2019-04-10T16:14:44.436Z,19.73
2019-04-10T16:17:31.853Z,16.57
2019-04-10T16:20:19.642Z,17.82
2019-04-10T16:22:57.171Z,19.32
2019-04-10T16:25:34.027Z,18.40
2019-04-10T16:28:11.052Z,18.52
2019-04-10T16:30:46.986Z,18.07
2019-04-10T16:33:23.272Z,17.95
2019-04-10T16:36:00.972Z,18.50
2019-04-10T16:38:36.911Z,17.45
2019-04-10T16:41:12.656Z,22.70
2019-04-10T16:43:48.817Z,32.42
2019-04-10T16:46:24.680Z,24.60
2019-04-10T16:49:00.533Z,23.75
2019-04-10T16:51:36.613Z,36.30
2019-04-10T16:54:12.649Z,21.60
2019-04-10T16:56:48.496Z,21.73
2019-04-10T16:59:24.254Z,20.37
2019-04-10T17:02:00.726Z,19.12
2019-04-10T17:04:37.703Z,17.90
2019-04-10T17:07:14.585Z,18.75
2019-04-10T17:09:51.477Z,19.48
2019-04-10T17:12:29.561Z,19.00
2019-04-10T17:15:08.098Z,19.23
2019-04-10T17:17:44.466Z,18.75
2019-04-10T17:20:20.706Z,18.17
2019-04-10T17:22:56.584Z,19.12
2019-04-10T17:25:32.395Z,20.05
2019-04-10T17:28:08.391Z,22.00
2019-04-10T17:30:44.266Z,17.90
2019-04-10T17:33:20.683Z,18.92
2019-04-10T17:35:57.746Z,19.87
2019-04-10T17:38:34.873Z,19.00
2019-04-10T17:41:11.222Z,18.85
2019-04-10T17:43:47.537Z,17.50
2019-04-10T17:46:23.553Z,18.45
2019-04-10T17:48:59.402Z,20.62
2019-04-10T17:51:36.337Z,19.02
2019-04-10T17:54:12.230Z,18.92
2019-04-10T17:56:48.516Z,20.12
2019-04-10T17:59:24.715Z,19.62
2019-04-10T18:02:02.251Z,19.10
2019-04-10T18:04:38.105Z,20.48
2019-04-10T18:07:14.241Z,20.02
2019-04-10T18:09:50.718Z,21.17
2019-04-10T18:12:26.703Z,18.48
2019-04-10T18:15:04.058Z,18.80
2019-04-10T18:17:40.836Z,17.30
2019-04-10T18:20:17.785Z,19.35
2019-04-10T18:22:53.803Z,19.40
2019-04-10T18:25:29.799Z,17.62
2019-04-10T18:28:05.806Z,16.93
2019-04-10T18:30:41.672Z,17.12
2019-04-10T18:33:18.274Z,18.05
2019-04-10T18:35:55.286Z,16.50
2019-04-10T18:38:31.275Z,16.55
2019-04-10T18:41:08.967Z,18.55
2019-04-10T18:43:44.719Z,16.35
2019-04-10T18:46:22.299Z,17.10
2019-04-10T18:48:59.009Z,19.02
2019-04-10T18:51:36.013Z,17.52
2019-04-10T18:54:12.464Z,16.97
2019-04-10T18:56:49.407Z,21.48
2019-04-10T18:59:45.444Z,16.90
2019-04-10T19:05:52.055Z,17.23
2019-04-10T19:08:30.257Z,17.30
2019-04-10T19:11:15.306Z,17.73
2019-04-10T19:13:43.711Z,17.15
2019-04-10T19:16:20.072Z,16.40
2019-04-10T19:18:56.853Z,17.52
2019-04-10T19:21:33.016Z,15.63
2019-04-10T19:24:09.799Z,16.93
2019-04-10T19:26:45.741Z,16.73
2019-04-10T19:29:21.595Z,17.25
2019-04-10T19:31:58.986Z,18.35
2019-04-10T19:34:34.829Z,17.27
2019-04-10T19:37:10.683Z,16.75
2019-04-10T19:39:46.726Z,15.98
2019-04-10T19:42:22.598Z,16.05
2019-04-10T19:44:59.530Z,16.35
2019-04-10T19:47:36.650Z,16.67
2019-04-10T19:50:13.077Z,16.73
2019-04-10T19:52:49.303Z,46.45
2019-04-10T19:55:25.142Z,64.32
2019-04-10T19:58:01.778Z,17.90
2019-04-10T20:00:38.872Z,18.90
2019-04-10T20:03:15.301Z,18.42
2019-04-10T20:05:51.349Z,20.23
2019-04-10T20:08:27.954Z,19.30
2019-04-10T20:11:03.865Z,19.15
2019-04-10T20:13:40.878Z,19.32
2019-04-10T20:16:17.395Z,17.40
2019-04-10T20:18:53.371Z,17.17
2019-04-10T20:21:30.067Z,18.20
2019-04-10T20:24:05.997Z,20.72
2019-04-10T20:26:41.854Z,16.90
2019-04-10T20:29:17.705Z,16.80
2019-04-10T20:31:55.346Z,18.17
2019-04-10T20:34:31.758Z,17.90
2019-04-10T20:37:09.863Z,17.20
2019-04-10T20:39:45.483Z,17.75
2019-04-10T20:42:22.492Z,17.62
2019-04-10T20:44:59.079Z,18.85
2019-04-10T20:47:35.202Z,17.52
2019-04-10T20:50:12.033Z,19.17
2019-04-10T20:52:47.979Z,19.40
2019-04-10T20:55:25.811Z,20.75
2019-04-10T20:58:03.533Z,19.60
2019-04-10T21:00:43.249Z,17.73
2019-04-10T21:03:19.689Z,19.77
2019-04-10T21:05:56.262Z,22.37
2019-04-10T21:08:32.208Z,19.98
2019-04-10T21:11:08.062Z,17.42
2019-04-10T21:13:45.045Z,19.60
2019-04-10T21:16:20.894Z,19.10
2019-04-10T21:18:56.746Z,20.08
2019-04-10T21:21:34.907Z,19.30
2019-04-10T21:24:11.393Z,17.80
2019-04-10T21:26:48.471Z,15.78
2019-04-10T21:29:42.480Z,16.42
2019-04-10T21:32:36.354Z,15.35
2019-04-10T21:35:13.855Z,15.32
2019-04-10T21:37:50.649Z,15.28
2019-04-10T21:40:27.197Z,15.08
2019-04-10T21:43:03.755Z,15.98
2019-04-10T21:45:39.622Z,17.98
2019-04-10T21:48:16.706Z,17.57
2019-04-10T21:50:53.583Z,31.33
2019-04-10T21:53:31.824Z,14.50
2019-04-10T21:56:08.341Z,27.25
2019-04-10T21:58:46.510Z,15.50
2019-04-10T22:01:22.640Z,16.87
2019-04-10T22:04:00.558Z,16.65
2019-04-10T22:06:39.718Z,15.38
2019-04-10T22:09:34.927Z,15.50
2019-04-10T22:12:24.045Z,13.93
2019-04-10T22:14:53.143Z,13.65
2019-04-10T22:17:29.095Z,14.53
2019-04-10T22:20:06.015Z,14.40
2019-04-10T22:22:42.742Z,14.45
2019-04-10T22:25:19.495Z,14.40
2019-04-10T22:27:56.230Z,15.10
2019-04-10T22:30:32.913Z,14.50
2019-04-10T22:33:08.816Z,15.28
2019-04-10T22:35:44.879Z,15.20
2019-04-10T22:38:21.536Z,15.23
2019-04-10T22:40:58.136Z,15.13
2019-04-10T22:43:34.251Z,15.38
2019-04-10T22:46:10.937Z,14.30
2019-04-10T22:48:47.700Z,16.37
2019-04-10T22:51:24.751Z,15.98
2019-04-10T22:54:01.833Z,16.00
2019-04-10T22:56:37.896Z,15.63
2019-04-10T22:59:13.749Z,14.40
2019-04-10T23:02:00.330Z,15.10
2019-04-10T23:04:28.544Z,15.45
2019-04-10T23:07:06.025Z,15.72
2019-04-10T23:09:43.036Z,15.85
2019-04-10T23:12:18.915Z,15.58
2019-04-10T23:14:55.387Z,15.08
2019-04-10T23:17:31.452Z,15.25
2019-04-10T23:20:08.941Z,14.15
2019-04-10T23:22:54.668Z,14.85
2019-04-10T23:25:45.208Z,14.15
2019-04-10T23:28:27.306Z,14.98
2019-04-10T23:31:03.637Z,14.45
2019-04-10T23:33:39.927Z,15.60
2019-04-10T23:36:16.082Z,15.90
2019-04-10T23:38:52.146Z,15.23
2019-04-10T23:41:29.594Z,15.40
2019-04-10T23:44:06.755Z,15.20
2019-04-10T23:46:43.350Z,15.72
2019-04-10T23:49:20.095Z,15.68
2019-04-10T23:51:55.954Z,15.05
2019-04-10T23:54:31.795Z,13.65
2019-04-10T23:57:07.655Z,14.68
2019-04-10T23:59:44.602Z,13.72
